Observation of Berlin-Dahlem in FM12 format


Grober Überblick über die Fähigkeiten

COR Statistik

measurements error message
Syntax:

MMMM D....D YYGGggi 99LLL QLLLL
IIiii iihVV Nddff 1sTTT 2sTTT 3PPPP 4PPPP 5appp 6RRRt 7wwW1W2 8NhClCmCh 9GGgg
  333 0.... 1sTTT 2sTTT 3EsTT 4E'sss 55SSS 2FFFF 3FFFF 4FFFF 553SS 2FFFF 3FFFF 4FFFF 6RRRt 7RRRR 8NChh 9SSss
  555 0sTTT 1RRRr 2sTTT 22fff 23SS 24WRt 25wzwz 26fff 3LLLL 5ssst 7hhZD 8N/hh 910ff 911ff 912ff
 BOT hsTTT
     80000 1RRRRWR 2SSSS 3fff 4fff 5RR 6VVVVVV 7sTTT 8sTTT 9sTTTs
 666 1sTTT 2sTTT 3sTTT 6VVVV/VVVV 7VVVV
     80000 0RRRr 1RRRr 2RRRr 3RRRr 4RRRr 5RRRr
Wetter: ww
Sicht: VV
Bedeckung: N/8
Tiefste Wolke: h
Wolkenschichten: 8NChh
Niederschlag (1h): RRR

Date: 30.07.2021

Hour: 06 UTC

SMDL DWBD 300600
AAXX 30061
10381 02984 12203 10153 20104 30011 40106 50000 60002 80001
    333 10221 20120 30008 55084 55310 60007 70000 81080
    555 00139 10000 20199 22027 2360 2404 91005 91105 91203
  BOT 10166 20180 30194 40211 50192
           80000 100000 20505 3136 4080 600//00 70245 80126 900870
   666 10153 20133=
Wetter: langweilig
Sicht: 50000m
Bedeckung: 1/8
Tiefste Wolke: >=2500m oder wolkenlos
Wolkenschichten:
1/8 Ci fib auf 9000m
Erdbodenzustand: trocken

Niederschlag (1h): Steppe
Hour: 5 UTC

SNDL DWBD 300500
AAXX 30051
10381 42984 12103 10134 20094 30012 40107 52002 81030
    333 55304 81366
    555 00114 10000 22030 2323 2405 91005 91105 91203
  BOT 10164 20181 30196 40212 50192
   666 10134 20128=
Wetter: langweilig
Sicht: 50000m
Bedeckung: 1/8
Tiefste Wolke: >=2500m oder wolkenlos
Wolkenschichten:
1/8 Ac str tr auf 4800m

Niederschlag (1h): Steppe
Hour: 4 UTC

SNDL DWBD 300400 CCA
AAXX 30041
10381 42984 42203 10130 20090 30011 40106 51000 80009
    333 55300 84174
    555 00104 10000 22030 2300 2405 91004 91105 91204
  BOT 10164 20183 30199 40212 50192
   666 10130 20126=
Wetter: langweilig
Sicht: 50000m
Bedeckung: 4/8
Tiefste Wolke: >=2500m oder wolkenlos
Wolkenschichten:
4/8 Cc str auf 7200m

Niederschlag (1h): Steppe
Hour: 3 UTC

SIDL DWBD 300300
AAXX 30031
10381 22984 22203 10126 20090 30011 40107 55003 81034
    333 55300 60007 81365
    555 00082 10000 22034 2300 2407 91005 91105 91204
  BOT 10166 20187 30203 40213 50192
   666 10129 20120=
Wetter: langweilig
Sicht: 50000m
Bedeckung: 2/8
Tiefste Wolke: >=2500m oder wolkenlos
Wolkenschichten:
1/8 Ac str tr auf 4500m

Niederschlag (1h): Steppe
Hour: 2 UTC

SNDL DWBD 300200
AAXX 30021
10381 42984 02203 10120 20097 30010 40106 57008
    333 55300
    555 00079 10000 22031 2300 2405 91004 91105 91204
  BOT 10171 20191 30207 40214 50192
   666 10134 20120=
Wetter: langweilig
Sicht: 50000m
Bedeckung: 0/8
Tiefste Wolke: >=2500m oder wolkenlos
Wolkenschichten:

Niederschlag (1h): Steppe
Hour: 1 UTC

SNDL DWBD 300100 CCB
AAXX 30011
10381 42984 12103 10121 20098 30011 40107 58005 81030
    333 55300 81367
    555 00085 10000 22033 2300 2405 91005 91105 91204
  BOT 10176 20196 30211 40214 50192
   666 10129 20121=
Wetter: langweilig
Sicht: 50000m
Bedeckung: 1/8
Tiefste Wolke: >=2500m oder wolkenlos
Wolkenschichten:
1/8 Ac str tr auf 5100m

Niederschlag (1h): Steppe
Hour: 0 UTC

SMDL DWBD 300000
AAXX 30001
10381 02984 02204 10127 20098 30014 40110 58001 60001
    333 30/// 55300 60007
    555 00088 10000 22035 2300 2401 91004 91105 91204
  BOT 10182 20202 30215 40215 50192
           80000 100000
   666 10132 20126=
Wetter: langweilig
Sicht: 50000m
Bedeckung: 0/8
Tiefste Wolke: >=2500m oder wolkenlos
Wolkenschichten:
Erdbodenzustand: trocken

Niederschlag (1h): Steppe
Anzahl COR's: 3

Yesterday Synops


measurementserror message
Hour: 23 UTC

SNDL DWBD 292300
AAXX 29231
10381 42984 12303 10132 20094 30018 40113 52004 81010
    333 55300 81466
    555 00092 10000 22032 2300 2405 91004 91105 91203
  BOT 10188 20208 30220 40215 50192
   666 10147 20132=
Wetter: langweilig
Sicht: 50000m
Bedeckung: 1/8
Tiefste Wolke: >=2500m oder wolkenlos
Wolkenschichten:
1/8 As tr auf 4800m

Niederschlag (1h): Steppe
Hour: 22 UTC

SNDL DWBD 292200
AAXX 29221
10381 42984 02402 10147 20088 30016 40111 52007
    333 55300
    555 00097 10000 22024 2300 2405 91003 91106 91204
  BOT 10197 20215 30225 40214 50192
   666 10173 20146=
Wetter: langweilig
Sicht: 50000m
Bedeckung: 0/8
Tiefste Wolke: >=2500m oder wolkenlos
Wolkenschichten:

Niederschlag (1h): Steppe
Hour: 21 UTC

SIDL DWBD 292100
AAXX 29211
10381 22984 12704 10170 20077 30015 40109 52008 81030
    333 55300 60007 81361
    555 00108 10000 22039 2300 2407 91006 91106 91204
  BOT 10207 20223 30230 40214 50191
   666 10192 20165=
Wetter: langweilig
Sicht: 50000m
Bedeckung: 1/8
Tiefste Wolke: >=2500m oder wolkenlos
Wolkenschichten:
1/8 Ac str tr auf 3300m

Niederschlag (1h): Steppe
Hour: 20 UTC

SNDL DWBD 292000
AAXX 29201
10381 42982 12703 10192 20068 30014 40107 52008 81031
    333 55300 81361 99060
    555 00125 10000 22032 2300 2405 91005 91108 91205
  BOT 10220 20232 30234 40213 50192
   666 10212 20192=
Wetter: langweilig
Sicht: 40000m
Bedeckung: 1/8
Tiefste Wolke: >=2500m oder wolkenlos
Wolkenschichten:
1/8 Ac str tr auf 3300m

Niederschlag (1h): Steppe
Hour: 19 UTC

SNDL DWBD 291900
AAXX 29191
10381 42982 32705 10211 20074 30009 40102 52005 82081
    333 55308 82360
    555 00181 10000 22047 2348 2405 91008 91108 91205
  BOT 10236 20241 30238 40213 50192
   666 10221 20211=
Wetter: langweilig
Sicht: 40000m
Bedeckung: 3/8
Tiefste Wolke: >=2500m oder wolkenlos
Wolkenschichten:
2/8 Ac cas auf 3000m

Niederschlag (1h): Steppe
Hour: 18 UTC

SMDL DWBD 291800
AAXX 29181
10381 02882 62704 10220 20079 30007 40099 52005 60002 82530
    333 10245 20181 30017 55302 60007 82657 85360 91114
    555 00210 10000 22035 2310 2402 91006 91108 91205
  BOT 10248 20249 30240 40212 50192
           80000 100000
   666 10230 20219=
Wetter: langweilig
Sicht: 40000m
Bedeckung: 6/8
Tiefste Wolke: 2000m
Wolkenschichten:
2/8 Sc str auf 2100m
5/8 Ac str tr auf 3000m
Erdbodenzustand: trocken

Niederschlag (1h): Steppe
Hour: 17 UTC

SNDL DWBD 291700
AAXX 29171
10381 42882 72705 10230 20088 30006 40098 53004 8283/
    333 55302 81856 85359
    555 00239 10000 22051 2314 2405 91009 91110 91206
  BOT 10259 20255 30241 40212 50192
   666 10230 20224=
Wetter: langweilig
Sicht: 40000m
Bedeckung: 7/8
Tiefste Wolke: 2000m
Wolkenschichten:
1/8 Cu auf 1800m
5/8 Ac str tr auf 2700m

Niederschlag (1h): Steppe
Hour: 16 UTC

SNDL DWBD 291600 CCA
AAXX 29161
10381 42884 72706 10224 20093 30004 40096 55002 8683/
    333 55303 82856 84657
    555 00229 10000 22056 2317 2405 91010 91111 91207
  BOT 10270 20261 30241 40211 50192
   666 10237 20224=
Wetter: langweilig
Sicht: 50000m
Bedeckung: 7/8
Tiefste Wolke: 2000m
Wolkenschichten:
2/8 Cu auf 1800m
4/8 Sc str auf 2100m

Niederschlag (1h): Steppe
Hour: 15 UTC

SIDL DWBD 291500
AAXX 29151
10381 22884 52706 10236 20093 30002 40094 56005 85430
    333 55305 60007 82856 83657 91114
    555 00262 10000 22062 2328 2407 91011 91114 91208
  BOT 10281 20263 30239 40211 50192
   666 10245 20228=
Wetter: langweilig
Sicht: 50000m
Bedeckung: 5/8
Tiefste Wolke: 2000m
Wolkenschichten:
2/8 Cu auf 1800m
3/8 Sc str cugen auf 2100m

Niederschlag (1h): Steppe
Hour: 14 UTC

SNDL DWBD 291400
AAXX 29141
10381 42784 52406 10243 20099 30002 40094 58005 84830
    333 55306 84856
    555 00290 10000 22056 2338 2405 91010 91112 91207
  BOT 10284 20259 30235 40210 50192
   666 10244 20222=
Wetter: langweilig
Sicht: 50000m
Bedeckung: 5/8
Tiefste Wolke: 1500m
Wolkenschichten:
4/8 Cu auf 1800m

Niederschlag (1h): Steppe
Hour: 13 UTC

SNDL DWBD 291300
AAXX 29131
10381 42785 42705 10222 20098 30006 40098 50001 83840
    333 55304 82850
    555 00236 10000 22048 2321 2405 91008 91112 91207
  BOT 10276 20257 30231 40211 50192
   666 10237 20220=
Wetter: langweilig
Sicht: 55000m
Bedeckung: 4/8
Tiefste Wolke: 1500m
Wolkenschichten:
2/8 Cu auf 1500m

Niederschlag (1h): Steppe
Hour: 12 UTC

SMDL DWBD 291200
AAXX 29121
10381 02785 32507 10233 20101 30007 40099 56001 60001 82831
    333 30/// 55307 60007 81850 91113
    555 00274 10000 22065 2341 2401 91012 91113 91208
  BOT 10276 20247 30224 40211 50192
           80000 100000
   666 10238 20224=
Wetter: langweilig
Sicht: 55000m
Bedeckung: 3/8
Tiefste Wolke: 1500m
Wolkenschichten:
1/8 Cu auf 1500m
Erdbodenzustand: trocken

Niederschlag (1h): Steppe
Hour: 11 UTC

SNDL DWBD 291100
AAXX 29111
10381 42686 62705 10226 20124 30007 40099 55002 84870
    333 55301 83845 83359
    555 00255 10000 22053 2307 2405 91010 91111 91207
  BOT 10252 20237 30220 40211 50192
   666 10234 20214=
Wetter: langweilig
Sicht: 60000m
Bedeckung: 6/8
Tiefste Wolke: 1000m
Wolkenschichten:
3/8 Cu auf 1350m
3/8 Ac auf 2700m

Niederschlag (1h): Steppe
Hour: 10 UTC

SNDL DWBD 291000
AAXX 29101
10381 42686 62304 10233 20127 30005 40097 57007 85870
    333 55308 83845 83657
    555 00281 10000 22043 2345 2405 91008 91111 91206
  BOT 10260 20232 30214 40212 50192
   666 10237 20213=
Wetter: langweilig
Sicht: 60000m
Bedeckung: 6/8
Tiefste Wolke: 1000m
Wolkenschichten:
3/8 Cu auf 1350m
3/8 Sc str auf 2100m

Niederschlag (1h): Steppe
Hour: 9 UTC

SIDL DWBD 290900
AAXX 29091
10381 22686 52505 10215 20122 30008 40101 57005 83850
    333 20164 3/012 55306 60007 83840 83359 91113
    555 00231 10000 22051 2334 2407 91009 91113 91207
  BOT 10232 20218 30209 40213 50192
   666 10228 20210=
Wetter: langweilig
Sicht: 60000m
Bedeckung: 5/8
Tiefste Wolke: 1000m
Wolkenschichten:
3/8 Cu auf 1200m
3/8 Ac auf 2700m

Niederschlag (1h): Steppe
Hour: 8 UTC

SNDL DWBD 290800
AAXX 29081
10381 42685 32405 10219 20126 30009 40101 57005 82240
    333 55310 82838
    555 00242 10000 22050 2360 2405 91011 91111 91206
  BOT 10214 20204 30207 40214 50192
   666 10219 20199=
Wetter: langweilig
Sicht: 55000m
Bedeckung: 3/8
Tiefste Wolke: 1000m
Wolkenschichten:
2/8 Cu med auf 1140m

Niederschlag (1h): Steppe
Hour: 7 UTC

SNDL DWBD 290700
AAXX 29071
10381 42984 12204 10199 20144 30012 40105 50002 81030
    333 55310 81361
    555 00186 10000 22042 2360 2405 91007 91108 91204
  BOT 10191 20200 30208 40215 50192
   666 10199 20181=
Wetter: langweilig
Sicht: 50000m
Bedeckung: 1/8
Tiefste Wolke: >=2500m oder wolkenlos
Wolkenschichten:
1/8 Ac str tr auf 3300m

Niederschlag (1h): Steppe
Hour: 6 UTC

SMDL DWBD 290600
AAXX 29061
10381 02984 12304 10181 20147 30013 40107 50004 60002 81031
    333 10229 20164 30012 55052 55309 60007 79999 81359
    555 00171 10000 20207 22035 2353 2464 91008 91108 91205
  BOT 10190 20201 30209 40216 50192
           80000 100000 20311 3095 4060 601//00 70246 80170 901360
   666 10181 20169=
Wetter: langweilig
Sicht: 50000m
Bedeckung: 1/8
Tiefste Wolke: >=2500m oder wolkenlos
Wolkenschichten:
1/8 Ac str tr auf 2700m
Erdbodenzustand: trocken

Niederschlag (1h): Steppe
Hour: 5 UTC

SNDL DWBD 290500 CCA
AAXX 29051
10381 42984 52204 10170 20150 30014 40108 52007 85030
    333 55304 85359
    555 00161 10000 22038 2325 2405 91006 91106 91204
  BOT 10190 20201 30211 40216 50192
   666 10170 20165=
Wetter: langweilig
Sicht: 50000m
Bedeckung: 5/8
Tiefste Wolke: >=2500m oder wolkenlos
Wolkenschichten:
5/8 Ac str tr auf 2700m

Niederschlag (1h): Steppe
Hour: 4 UTC

SNDL DWBD 290400
AAXX 29041
10381 42984 42104 10165 20148 30010 40104 55001 84030
    333 55301 84359
    555 00147 10000 22041 2303 2405 91006 91107 91204
  BOT 10187 20203 30214 40217 50191
   666 10169 20164=
Wetter: langweilig
Sicht: 50000m
Bedeckung: 4/8
Tiefste Wolke: >=2500m oder wolkenlos
Wolkenschichten:
4/8 Ac str tr auf 2700m

Niederschlag (1h): Steppe
Hour: 3 UTC

SIDL DWBD 290300
AAXX 29031
10381 22984 22203 10168 20151 30009 40103 55004 82030
    333 55300 60007 82359
    555 00136 10000 22033 2300 2407 91005 91105 91204
  BOT 10190 20207 30217 40217 50191
   666 10174 20165=
Wetter: langweilig
Sicht: 50000m
Bedeckung: 2/8
Tiefste Wolke: >=2500m oder wolkenlos
Wolkenschichten:
2/8 Ac str tr auf 2700m

Niederschlag (1h): Steppe
Hour: 2 UTC

SNDL DWBD 290200
AAXX 29021
10381 42884 12102 10174 20148 30007 40101 58006 81500
    333 55300 81657
    555 00129 10000 22022 2300 2405 91003 91106 91204
  BOT 10199 20212 30220 40218 50191
   666 10186 20174=
Wetter: langweilig
Sicht: 50000m
Bedeckung: 1/8
Tiefste Wolke: 2000m
Wolkenschichten:
1/8 Sc str auf 2100m

Niederschlag (1h): Steppe
Hour: 1 UTC

SNDL DWBD 290100
AAXX 29011
10381 42884 52203 10186 20150 30011 40104 58002 84530
    333 55300 84657
    555 00176 10000 22034 2300 2405 91006 91106 91204
  BOT 10203 20215 30223 40218 50191
   666 10187 20183=
Wetter: langweilig
Sicht: 50000m
Bedeckung: 5/8
Tiefste Wolke: 2000m
Wolkenschichten:
4/8 Sc str auf 2100m

Niederschlag (1h): Steppe
Hour: 0 UTC

SMDL DWBD 290000
AAXX 29001
10381 02884 62203 10185 20147 30013 40106 56002 60001 82530
    333 30/// 55300 60007 82656 85359
    555 00173 10000 22027 2300 2401 91005 91105 91204
  BOT 10206 20217 30226 40219 50191
           80000 100000
   666 10186 20182=
Wetter: langweilig
Sicht: 50000m
Bedeckung: 6/8
Tiefste Wolke: 2000m
Wolkenschichten:
2/8 Sc str auf 1800m
5/8 Ac str tr auf 2700m
Erdbodenzustand: trocken

Niederschlag (1h): Steppe
Anzahl COR's: 2

Last update: 30.07.21 06:42UTC